EOK3883 RKTU-RJSI
Flight info
| Callsign | EOK3883 |
|---|---|
| Flight time | 1h 47m |
| Altitude | 35000 |
| Route | VASLI Y782 TGU Y659 KPO Y685 SAPRA Y599 KABKI Y597 MIHOU Y14 SAMON Y142 GTC ELBOR YTE Y153 SIOMO |
| Aircraft | B738/M-SDFGHIRWY/LB1 |
Departure
| Time | 2026-05-05 05:49 |
|---|---|
| Airport | Cheongju International Airport/Cheongju Air Base (K-59/G-513) (RKTU) |
Arrival
| Time | 2026-05-05 07:36 |
|---|---|
| Airport | Iwate Hanamaki Airport (RJSI) |
| Time | Latitude | Longitude | Altitude | Speed | Heading |
|---|---|---|---|---|---|
| 2026-05-05 05:36 | 36.72193 | 127.49738 | 197 ft | 0 kts | 323° |
| 2026-05-05 05:37 | 36.72187 | 127.49743 | 197 ft | 2 kts | 323° |
| 2026-05-05 05:37 | 36.72175 | 127.49754 | 197 ft | 2 kts | 323° |
| 2026-05-05 05:37 | 36.72163 | 127.49766 | 197 ft | 2 kts | 323° |
| 2026-05-05 05:38 | 36.72151 | 127.49777 | 197 ft | 2 kts | 323° |
| 2026-05-05 05:38 | 36.72139 | 127.49788 | 197 ft | 2 kts | 323° |
| 2026-05-05 05:38 | 36.72125 | 127.49794 | 197 ft | 2 kts | 4° |
| 2026-05-05 05:38 | 36.72110 | 127.49789 | 197 ft | 2 kts | 35° |
| 2026-05-05 05:39 | 36.72101 | 127.49776 | 197 ft | 1 kts | 64° |
| 2026-05-05 05:39 | 36.72098 | 127.49769 | 197 ft | 1 kts | 55° |
| 2026-05-05 05:39 | 36.72097 | 127.49766 | 197 ft | 0 kts | 54° |
| 2026-05-05 05:42 | 36.72099 | 127.49770 | 197 ft | 1 kts | 54° |
| 2026-05-05 05:42 | 36.72112 | 127.49792 | 197 ft | 3 kts | 53° |
| 2026-05-05 05:42 | 36.72130 | 127.49823 | 197 ft | 4 kts | 52° |
| 2026-05-05 05:43 | 36.72152 | 127.49857 | 197 ft | 5 kts | 53° |
| 2026-05-05 05:43 | 36.72174 | 127.49893 | 197 ft | 5 kts | 52° |
| 2026-05-05 05:43 | 36.72197 | 127.49931 | 197 ft | 5 kts | 52° |
| 2026-05-05 05:43 | 36.72221 | 127.49970 | 197 ft | 5 kts | 52° |
| 2026-05-05 05:44 | 36.72249 | 127.50013 | 197 ft | 7 kts | 51° |
| 2026-05-05 05:44 | 36.72284 | 127.50069 | 197 ft | 9 kts | 52° |
| 2026-05-05 05:44 | 36.72329 | 127.50140 | 197 ft | 10 kts | 51° |
| 2026-05-05 05:44 | 36.72337 | 127.50214 | 197 ft | 8 kts | 115° |
| 2026-05-05 05:45 | 36.72298 | 127.50263 | 197 ft | 9 kts | 140° |
| 2026-05-05 05:45 | 36.72249 | 127.50318 | 197 ft | 8 kts | 104° |
| 2026-05-05 05:45 | 36.72272 | 127.50395 | 197 ft | 11 kts | 52° |
| 2026-05-05 05:45 | 36.72324 | 127.50478 | 197 ft | 13 kts | 53° |
| 2026-05-05 05:46 | 36.72384 | 127.50573 | 197 ft | 14 kts | 51° |
| 2026-05-05 05:46 | 36.72447 | 127.50678 | 197 ft | 15 kts | 52° |
| 2026-05-05 05:46 | 36.72510 | 127.50779 | 197 ft | 12 kts | 52° |
| 2026-05-05 05:46 | 36.72560 | 127.50861 | 197 ft | 10 kts | 52° |
| 2026-05-05 05:47 | 36.72576 | 127.50939 | 197 ft | 9 kts | 102° |
| 2026-05-05 05:47 | 36.72562 | 127.51003 | 197 ft | 7 kts | 108° |
| 2026-05-05 05:47 | 36.72539 | 127.51060 | 197 ft | 6 kts | 137° |
| 2026-05-05 05:47 | 36.72504 | 127.51079 | 197 ft | 6 kts | 175° |
| 2026-05-05 05:48 | 36.72443 | 127.51014 | 197 ft | 20 kts | 233° |
| 2026-05-05 05:48 | 36.72240 | 127.50674 | 197 ft | 83 kts | 232° |
| 2026-05-05 05:48 | 36.71748 | 127.49880 | 198 ft | 144 kts | 232° |
| 2026-05-05 05:48 | 36.71061 | 127.48790 | 470 ft | 169 kts | 233° |
| 2026-05-05 05:49 | 36.70298 | 127.47579 | 1036 ft | 183 kts | 232° |
| 2026-05-05 05:49 | 36.69486 | 127.46313 | 1616 ft | 193 kts | 231° |
| 2026-05-05 05:49 | 36.68645 | 127.45003 | 2216 ft | 197 kts | 231° |
| 2026-05-05 05:49 | 36.67783 | 127.43661 | 2710 ft | 204 kts | 231° |
| 2026-05-05 05:50 | 36.66925 | 127.42224 | 3177 ft | 211 kts | 243° |
| 2026-05-05 05:50 | 36.66656 | 127.40374 | 3369 ft | 234 kts | 280° |
| 2026-05-05 05:50 | 36.67445 | 127.38533 | 3698 ft | 253 kts | 315° |
| 2026-05-05 05:50 | 36.68984 | 127.37448 | 4156 ft | 266 kts | 346° |
| 2026-05-05 05:51 | 36.70851 | 127.37572 | 4597 ft | 276 kts | 21° |
| 2026-05-05 05:51 | 36.72399 | 127.38955 | 5168 ft | 277 kts | 49° |
| 2026-05-05 05:51 | 36.73511 | 127.40923 | 5688 ft | 283 kts | 68° |
| 2026-05-05 05:51 | 36.73848 | 127.43304 | 5856 ft | 278 kts | 95° |
| 2026-05-05 05:52 | 36.73469 | 127.45656 | 6002 ft | 276 kts | 112° |
| 2026-05-05 05:52 | 36.72658 | 127.47783 | 6086 ft | 272 kts | 122° |
| 2026-05-05 05:52 | 36.71556 | 127.49699 | 6473 ft | 272 kts | 134° |
| 2026-05-05 05:52 | 36.70239 | 127.51395 | 6857 ft | 275 kts | 137° |
| 2026-05-05 05:53 | 36.68872 | 127.53066 | 7319 ft | 277 kts | 137° |
| 2026-05-05 05:53 | 36.67484 | 127.54756 | 7824 ft | 279 kts | 137° |
| 2026-05-05 05:53 | 36.66107 | 127.56440 | 8312 ft | 281 kts | 137° |
| 2026-05-05 05:53 | 36.64699 | 127.58168 | 8832 ft | 283 kts | 137° |
| 2026-05-05 05:54 | 36.63316 | 127.59869 | 9327 ft | 285 kts | 137° |
| 2026-05-05 05:54 | 36.61902 | 127.61607 | 9872 ft | 287 kts | 137° |
| 2026-05-05 05:54 | 36.60460 | 127.63377 | 10251 ft | 297 kts | 137° |
| 2026-05-05 05:54 | 36.58980 | 127.65193 | 10481 ft | 310 kts | 137° |
| 2026-05-05 05:55 | 36.57400 | 127.67131 | 10663 ft | 325 kts | 137° |
| 2026-05-05 05:55 | 36.55746 | 127.69160 | 10963 ft | 335 kts | 137° |
| 2026-05-05 05:55 | 36.54082 | 127.71201 | 11343 ft | 343 kts | 137° |
| 2026-05-05 05:55 | 36.52357 | 127.73318 | 11722 ft | 351 kts | 137° |
| 2026-05-05 05:56 | 36.50592 | 127.75479 | 12054 ft | 357 kts | 137° |
| 2026-05-05 05:56 | 36.48861 | 127.77599 | 12777 ft | 352 kts | 137° |
| 2026-05-05 05:56 | 36.47123 | 127.79727 | 13172 ft | 355 kts | 137° |
| 2026-05-05 05:56 | 36.45346 | 127.81899 | 13656 ft | 356 kts | 137° |
| 2026-05-05 05:57 | 36.43572 | 127.84053 | 14068 ft | 358 kts | 137° |
| 2026-05-05 05:57 | 36.41785 | 127.86217 | 14464 ft | 361 kts | 137° |
| 2026-05-05 05:57 | 36.39989 | 127.88394 | 14879 ft | 363 kts | 137° |
| 2026-05-05 05:57 | 36.38169 | 127.90600 | 15290 ft | 366 kts | 137° |
| 2026-05-05 05:58 | 36.36364 | 127.92786 | 15711 ft | 368 kts | 137° |
| 2026-05-05 05:58 | 36.34532 | 127.95003 | 16118 ft | 371 kts | 137° |
| 2026-05-05 05:58 | 36.32668 | 127.97257 | 16553 ft | 373 kts | 137° |
| 2026-05-05 05:58 | 36.30806 | 127.99506 | 16983 ft | 376 kts | 137° |
| 2026-05-05 05:59 | 36.28920 | 128.01784 | 17410 ft | 379 kts | 137° |
| 2026-05-05 05:59 | 36.27028 | 128.04065 | 17827 ft | 382 kts | 137° |
| 2026-05-05 05:59 | 36.25119 | 128.06364 | 18303 ft | 385 kts | 137° |
| 2026-05-05 05:59 | 36.23186 | 128.08691 | 18766 ft | 389 kts | 137° |
| 2026-05-05 06:00 | 36.21236 | 128.11037 | 19233 ft | 392 kts | 137° |
| 2026-05-05 06:00 | 36.19288 | 128.13379 | 19690 ft | 396 kts | 137° |
| 2026-05-05 06:00 | 36.17294 | 128.15773 | 20153 ft | 400 kts | 137° |
| 2026-05-05 06:00 | 36.15294 | 128.18173 | 20620 ft | 403 kts | 137° |
| 2026-05-05 06:01 | 36.13246 | 128.20628 | 21075 ft | 407 kts | 137° |
| 2026-05-05 06:01 | 36.11211 | 128.23068 | 21526 ft | 411 kts | 137° |
| 2026-05-05 06:01 | 36.09141 | 128.25546 | 22027 ft | 414 kts | 137° |
| 2026-05-05 06:01 | 36.07086 | 128.28006 | 22472 ft | 418 kts | 137° |
| 2026-05-05 06:02 | 36.04981 | 128.30522 | 22952 ft | 421 kts | 137° |
| 2026-05-05 06:02 | 36.02868 | 128.33046 | 23456 ft | 425 kts | 137° |
| 2026-05-05 06:02 | 36.00731 | 128.35597 | 23962 ft | 429 kts | 137° |
| 2026-05-05 06:02 | 35.98591 | 128.38150 | 24469 ft | 433 kts | 138° |
| 2026-05-05 06:03 | 35.96433 | 128.40721 | 24959 ft | 436 kts | 138° |
| 2026-05-05 06:03 | 35.94200 | 128.43381 | 25452 ft | 440 kts | 138° |
| 2026-05-05 06:03 | 35.91999 | 128.45999 | 25917 ft | 443 kts | 138° |
| 2026-05-05 06:03 | 35.89769 | 128.48650 | 26388 ft | 447 kts | 139° |
| 2026-05-05 06:04 | 35.87568 | 128.51302 | 26959 ft | 448 kts | 136° |
| 2026-05-05 06:04 | 35.85570 | 128.54272 | 27485 ft | 454 kts | 124° |
| 2026-05-05 06:04 | 35.84216 | 128.57866 | 27741 ft | 468 kts | 108° |
| 2026-05-05 06:04 | 35.83691 | 128.61822 | 28182 ft | 474 kts | 95° |
| 2026-05-05 06:05 | 35.83595 | 128.65936 | 28545 ft | 481 kts | 92° |
| 2026-05-05 06:05 | 35.83599 | 128.70050 | 28929 ft | 485 kts | 91° |
| 2026-05-05 06:05 | 35.83611 | 128.74242 | 29358 ft | 488 kts | 91° |
| 2026-05-05 06:05 | 35.83622 | 128.78432 | 29700 ft | 491 kts | 91° |
| 2026-05-05 06:06 | 35.83631 | 128.82649 | 30132 ft | 491 kts | 92° |
| 2026-05-05 06:06 | 35.83638 | 128.86844 | 30550 ft | 492 kts | 92° |
| 2026-05-05 06:06 | 35.83642 | 128.91098 | 30962 ft | 492 kts | 92° |
| 2026-05-05 06:06 | 35.83644 | 128.95282 | 31359 ft | 492 kts | 92° |
| 2026-05-05 06:07 | 35.83645 | 128.99507 | 31747 ft | 492 kts | 92° |
| 2026-05-05 06:07 | 35.83644 | 129.03738 | 32121 ft | 493 kts | 92° |
| 2026-05-05 06:07 | 35.83641 | 129.07999 | 32476 ft | 493 kts | 92° |
| 2026-05-05 06:07 | 35.83637 | 129.12221 | 32823 ft | 493 kts | 92° |
| 2026-05-05 06:08 | 35.83631 | 129.16428 | 32989 ft | 498 kts | 92° |
| 2026-05-05 06:08 | 35.83623 | 129.20738 | 32975 ft | 499 kts | 92° |
| 2026-05-05 06:08 | 35.83604 | 129.29245 | 32983 ft | 496 kts | 92° |
| 2026-05-05 06:09 | 35.83577 | 129.37810 | 32982 ft | 500 kts | 92° |
| 2026-05-05 06:09 | 35.83545 | 129.46359 | 32981 ft | 499 kts | 92° |
| 2026-05-05 06:10 | 35.83507 | 129.54954 | 32981 ft | 498 kts | 92° |
| 2026-05-05 06:10 | 35.83462 | 129.63538 | 32981 ft | 498 kts | 92° |
| 2026-05-05 06:11 | 35.83414 | 129.72102 | 32981 ft | 498 kts | 92° |
| 2026-05-05 06:11 | 35.83361 | 129.80656 | 32982 ft | 500 kts | 92° |
| 2026-05-05 06:12 | 35.83300 | 129.89269 | 32981 ft | 501 kts | 92° |
| 2026-05-05 06:12 | 35.83232 | 129.97897 | 32981 ft | 500 kts | 92° |
| 2026-05-05 06:13 | 35.83157 | 130.06502 | 32981 ft | 500 kts | 92° |
| 2026-05-05 06:13 | 35.83077 | 130.15054 | 32981 ft | 500 kts | 92° |
| 2026-05-05 06:14 | 35.82989 | 130.23657 | 32981 ft | 500 kts | 92° |
| 2026-05-05 06:14 | 35.82895 | 130.32288 | 32982 ft | 503 kts | 92° |
| 2026-05-05 06:15 | 35.82795 | 130.40910 | 32981 ft | 503 kts | 92° |
| 2026-05-05 06:15 | 35.82689 | 130.49518 | 32981 ft | 502 kts | 92° |
| 2026-05-05 06:16 | 35.82576 | 130.58160 | 32981 ft | 502 kts | 92° |
| 2026-05-05 06:16 | 35.82457 | 130.66846 | 32981 ft | 502 kts | 93° |
| 2026-05-05 06:17 | 35.82312 | 130.75472 | 32981 ft | 502 kts | 94° |
| 2026-05-05 06:17 | 35.82062 | 130.84085 | 32982 ft | 506 kts | 94° |
| 2026-05-05 06:18 | 35.81802 | 130.92747 | 32981 ft | 505 kts | 94° |
| 2026-05-05 06:18 | 35.81537 | 131.01422 | 32981 ft | 504 kts | 94° |
| 2026-05-05 06:19 | 35.81266 | 131.10106 | 33023 ft | 504 kts | 94° |
| 2026-05-05 06:19 | 35.80991 | 131.18768 | 33131 ft | 505 kts | 94° |
| 2026-05-05 06:20 | 35.80709 | 131.27431 | 33128 ft | 506 kts | 94° |
| 2026-05-05 06:20 | 35.80421 | 131.36113 | 33129 ft | 507 kts | 94° |
| 2026-05-05 06:21 | 35.80128 | 131.44762 | 33129 ft | 507 kts | 94° |
| 2026-05-05 06:21 | 35.79826 | 131.53468 | 33129 ft | 506 kts | 94° |
| 2026-05-05 06:22 | 35.79661 | 131.62161 | 33088 ft | 508 kts | 85° |
| 2026-05-05 06:22 | 35.80901 | 131.70714 | 33237 ft | 507 kts | 79° |
| 2026-05-05 06:23 | 35.81619 | 131.74971 | 33492 ft | 508 kts | 79° |
| 2026-05-05 06:23 | 35.82335 | 131.79227 | 33736 ft | 510 kts | 79° |
| 2026-05-05 06:23 | 35.83054 | 131.83524 | 34010 ft | 511 kts | 79° |
| 2026-05-05 06:23 | 35.83768 | 131.87797 | 34282 ft | 511 kts | 79° |
| 2026-05-05 06:24 | 35.84478 | 131.92073 | 34556 ft | 511 kts | 79° |
| 2026-05-05 06:24 | 35.85182 | 131.96317 | 34827 ft | 511 kts | 79° |
| 2026-05-05 06:24 | 35.85896 | 132.00638 | 35103 ft | 511 kts | 79° |
| 2026-05-05 06:24 | 35.86599 | 132.04909 | 35378 ft | 510 kts | 79° |
| 2026-05-05 06:25 | 35.87302 | 132.09184 | 35653 ft | 510 kts | 79° |
| 2026-05-05 06:25 | 35.87997 | 132.13423 | 35870 ft | 511 kts | 79° |
| 2026-05-05 06:25 | 35.88701 | 132.17732 | 36079 ft | 512 kts | 79° |
| 2026-05-05 06:25 | 35.89399 | 132.22011 | 36303 ft | 513 kts | 79° |
| 2026-05-05 06:26 | 35.90098 | 132.26309 | 36530 ft | 514 kts | 79° |
| 2026-05-05 06:26 | 35.90800 | 132.30635 | 36767 ft | 514 kts | 79° |
| 2026-05-05 06:26 | 35.91499 | 132.34958 | 36911 ft | 517 kts | 79° |
| 2026-05-05 06:26 | 35.92208 | 132.39346 | 37002 ft | 519 kts | 79° |
| 2026-05-05 06:27 | 35.94301 | 132.52371 | 37102 ft | 517 kts | 79° |
| 2026-05-05 06:28 | 35.95692 | 132.61081 | 37102 ft | 517 kts | 79° |
| 2026-05-05 06:28 | 35.97070 | 132.69739 | 37102 ft | 516 kts | 80° |
| 2026-05-05 06:29 | 35.98445 | 132.78386 | 37102 ft | 517 kts | 80° |
| 2026-05-05 06:29 | 35.99823 | 132.87120 | 37102 ft | 519 kts | 80° |
| 2026-05-05 06:30 | 36.01194 | 132.95860 | 37102 ft | 518 kts | 80° |
| 2026-05-05 06:30 | 36.02549 | 133.04552 | 37130 ft | 518 kts | 80° |
| 2026-05-05 06:31 | 36.03905 | 133.13295 | 37129 ft | 518 kts | 80° |
| 2026-05-05 06:31 | 36.05249 | 133.22002 | 37129 ft | 518 kts | 80° |
| 2026-05-05 06:32 | 36.06583 | 133.30695 | 37129 ft | 519 kts | 80° |
| 2026-05-05 06:32 | 36.07925 | 133.39479 | 37129 ft | 520 kts | 80° |
| 2026-05-05 06:33 | 36.09251 | 133.48209 | 37129 ft | 520 kts | 80° |
| 2026-05-05 06:33 | 36.10585 | 133.57033 | 37129 ft | 519 kts | 80° |
| 2026-05-05 06:34 | 36.11892 | 133.65729 | 37129 ft | 519 kts | 81° |
| 2026-05-05 06:34 | 36.13209 | 133.74483 | 37129 ft | 519 kts | 81° |
| 2026-05-05 06:35 | 36.14530 | 133.83321 | 37130 ft | 522 kts | 81° |
| 2026-05-05 06:35 | 36.15833 | 133.92104 | 37129 ft | 522 kts | 81° |
| 2026-05-05 06:36 | 36.17136 | 134.00944 | 37129 ft | 521 kts | 81° |
| 2026-05-05 06:36 | 36.18437 | 134.09819 | 37129 ft | 521 kts | 81° |
| 2026-05-05 06:37 | 36.19722 | 134.18640 | 37129 ft | 521 kts | 81° |
| 2026-05-05 06:37 | 36.21005 | 134.27490 | 37128 ft | 522 kts | 81° |
| 2026-05-05 06:38 | 36.22284 | 134.36365 | 37130 ft | 524 kts | 81° |
| 2026-05-05 06:38 | 36.23685 | 134.45254 | 37128 ft | 524 kts | 76° |
| 2026-05-05 06:39 | 36.25940 | 134.53789 | 37131 ft | 522 kts | 64° |
| 2026-05-05 06:39 | 36.28986 | 134.61887 | 37099 ft | 514 kts | 62° |
| 2026-05-05 06:40 | 36.32096 | 134.69812 | 37103 ft | 515 kts | 63° |
| 2026-05-05 06:40 | 36.35276 | 134.77863 | 37101 ft | 518 kts | 62° |
| 2026-05-05 06:41 | 36.38446 | 134.85887 | 37102 ft | 520 kts | 62° |
| 2026-05-05 06:41 | 36.41622 | 134.93941 | 37102 ft | 519 kts | 62° |
| 2026-05-05 06:42 | 36.44780 | 135.01965 | 37102 ft | 518 kts | 62° |
| 2026-05-05 06:42 | 36.47927 | 135.09978 | 37102 ft | 519 kts | 62° |
| 2026-05-05 06:43 | 36.51091 | 135.18054 | 37117 ft | 518 kts | 62° |
| 2026-05-05 06:43 | 36.54243 | 135.26119 | 37155 ft | 519 kts | 62° |
| 2026-05-05 06:44 | 36.57412 | 135.34247 | 37157 ft | 523 kts | 62° |
| 2026-05-05 06:44 | 36.60565 | 135.42355 | 37155 ft | 522 kts | 62° |
| 2026-05-05 06:45 | 36.63712 | 135.50468 | 37156 ft | 521 kts | 62° |
| 2026-05-05 06:45 | 36.66867 | 135.58624 | 37156 ft | 522 kts | 62° |
| 2026-05-05 06:46 | 36.70009 | 135.66763 | 37155 ft | 522 kts | 63° |
| 2026-05-05 06:46 | 36.73151 | 135.74902 | 37156 ft | 522 kts | 63° |
| 2026-05-05 06:47 | 36.76288 | 135.83058 | 37159 ft | 522 kts | 62° |
| 2026-05-05 06:47 | 36.79367 | 135.91095 | 37155 ft | 514 kts | 62° |
| 2026-05-05 06:48 | 36.82440 | 135.99135 | 37157 ft | 516 kts | 62° |
| 2026-05-05 06:48 | 36.85522 | 136.07222 | 37156 ft | 517 kts | 62° |
| 2026-05-05 06:49 | 36.88599 | 136.15317 | 37156 ft | 517 kts | 62° |
| 2026-05-05 06:49 | 36.91666 | 136.23410 | 37156 ft | 516 kts | 62° |
| 2026-05-05 06:50 | 36.94730 | 136.31516 | 37156 ft | 517 kts | 63° |
| 2026-05-05 06:50 | 36.97794 | 136.39639 | 37127 ft | 518 kts | 63° |
| 2026-05-05 06:51 | 37.00843 | 136.47748 | 37129 ft | 517 kts | 63° |
| 2026-05-05 06:51 | 37.03894 | 136.55884 | 37129 ft | 517 kts | 63° |
| 2026-05-05 06:52 | 37.06960 | 136.64078 | 37129 ft | 517 kts | 63° |
| 2026-05-05 06:52 | 37.09989 | 136.72180 | 37129 ft | 517 kts | 63° |
| 2026-05-05 06:53 | 37.13055 | 136.80399 | 37130 ft | 519 kts | 63° |
| 2026-05-05 06:53 | 37.16095 | 136.88576 | 37129 ft | 521 kts | 63° |
| 2026-05-05 06:54 | 37.19136 | 136.96788 | 37129 ft | 520 kts | 63° |
| 2026-05-05 06:54 | 37.22169 | 137.04999 | 37129 ft | 519 kts | 63° |
| 2026-05-05 06:55 | 37.25179 | 137.13171 | 37129 ft | 520 kts | 63° |
| 2026-05-05 06:55 | 37.28198 | 137.21393 | 37128 ft | 515 kts | 62° |
| 2026-05-05 06:56 | 37.31193 | 137.29568 | 37130 ft | 516 kts | 62° |
| 2026-05-05 06:56 | 37.34176 | 137.37733 | 37129 ft | 518 kts | 62° |
| 2026-05-05 06:57 | 37.37184 | 137.45989 | 37129 ft | 518 kts | 62° |
| 2026-05-05 06:57 | 37.40155 | 137.54169 | 37129 ft | 517 kts | 62° |
| 2026-05-05 06:58 | 37.43137 | 137.62396 | 37129 ft | 517 kts | 62° |
| 2026-05-05 06:58 | 37.46117 | 137.70630 | 37129 ft | 517 kts | 63° |
| 2026-05-05 06:59 | 37.49105 | 137.78899 | 37129 ft | 519 kts | 63° |
| 2026-05-05 06:59 | 37.52083 | 137.87172 | 37129 ft | 520 kts | 63° |
| 2026-05-05 07:00 | 37.55058 | 137.95465 | 37129 ft | 519 kts | 63° |
| 2026-05-05 07:00 | 37.58025 | 138.03764 | 37129 ft | 519 kts | 63° |
| 2026-05-05 07:01 | 37.60972 | 138.12028 | 37158 ft | 519 kts | 63° |
| 2026-05-05 07:01 | 37.63934 | 138.20361 | 37156 ft | 520 kts | 63° |
| 2026-05-05 07:02 | 37.66885 | 138.28683 | 37156 ft | 521 kts | 63° |
| 2026-05-05 07:02 | 37.69831 | 138.37018 | 37156 ft | 522 kts | 63° |
| 2026-05-05 07:03 | 37.72786 | 138.45398 | 37156 ft | 522 kts | 63° |
| 2026-05-05 07:03 | 37.75732 | 138.53775 | 37157 ft | 520 kts | 63° |
| 2026-05-05 07:04 | 37.78653 | 138.62103 | 37155 ft | 516 kts | 63° |
| 2026-05-05 07:04 | 37.81538 | 138.70338 | 37157 ft | 516 kts | 63° |
| 2026-05-05 07:05 | 37.84443 | 138.78639 | 37156 ft | 519 kts | 64° |
| 2026-05-05 07:05 | 37.87380 | 138.87068 | 37156 ft | 522 kts | 64° |
| 2026-05-05 07:06 | 37.90281 | 138.95430 | 37156 ft | 521 kts | 64° |
| 2026-05-05 07:06 | 37.93176 | 139.03798 | 37156 ft | 520 kts | 64° |
| 2026-05-05 07:07 | 37.96084 | 139.12218 | 36890 ft | 523 kts | 63° |
| 2026-05-05 07:07 | 37.97578 | 139.16472 | 36605 ft | 518 kts | 63° |
| 2026-05-05 07:07 | 37.99048 | 139.20641 | 36327 ft | 513 kts | 63° |
| 2026-05-05 07:07 | 38.00496 | 139.24747 | 36055 ft | 511 kts | 63° |
| 2026-05-05 07:08 | 38.01941 | 139.28853 | 35784 ft | 512 kts | 63° |
| 2026-05-05 07:08 | 38.03387 | 139.32965 | 35466 ft | 513 kts | 63° |
| 2026-05-05 07:08 | 38.04845 | 139.37122 | 35087 ft | 512 kts | 63° |
| 2026-05-05 07:08 | 38.06304 | 139.41292 | 34705 ft | 509 kts | 63° |
| 2026-05-05 07:09 | 38.07732 | 139.45377 | 34329 ft | 506 kts | 62° |
| 2026-05-05 07:09 | 38.09147 | 139.49429 | 33949 ft | 504 kts | 62° |
| 2026-05-05 07:09 | 38.10567 | 139.53502 | 33547 ft | 502 kts | 62° |
| 2026-05-05 07:09 | 38.11975 | 139.57546 | 33146 ft | 500 kts | 62° |
| 2026-05-05 07:10 | 38.13380 | 139.61586 | 32726 ft | 498 kts | 62° |
| 2026-05-05 07:10 | 38.14787 | 139.65637 | 32296 ft | 496 kts | 63° |
| 2026-05-05 07:10 | 38.16166 | 139.69606 | 31873 ft | 494 kts | 63° |
| 2026-05-05 07:10 | 38.17545 | 139.73581 | 31448 ft | 492 kts | 63° |
| 2026-05-05 07:11 | 38.18926 | 139.77565 | 31019 ft | 491 kts | 63° |
| 2026-05-05 07:11 | 38.20307 | 139.81558 | 30573 ft | 493 kts | 63° |
| 2026-05-05 07:11 | 38.21670 | 139.85507 | 30100 ft | 490 kts | 63° |
| 2026-05-05 07:11 | 38.23041 | 139.89484 | 29621 ft | 489 kts | 63° |
| 2026-05-05 07:12 | 38.24410 | 139.93463 | 29135 ft | 490 kts | 63° |
| 2026-05-05 07:12 | 38.25762 | 139.97397 | 28639 ft | 491 kts | 63° |
| 2026-05-05 07:12 | 38.27134 | 140.01393 | 28136 ft | 492 kts | 63° |
| 2026-05-05 07:12 | 38.28512 | 140.05415 | 27631 ft | 493 kts | 63° |
| 2026-05-05 07:13 | 38.29884 | 140.09422 | 27129 ft | 494 kts | 63° |
| 2026-05-05 07:13 | 38.31247 | 140.13414 | 26630 ft | 495 kts | 63° |
| 2026-05-05 07:13 | 38.32610 | 140.17407 | 26132 ft | 496 kts | 63° |
| 2026-05-05 07:13 | 38.33993 | 140.21468 | 25656 ft | 496 kts | 63° |
| 2026-05-05 07:14 | 38.35346 | 140.25446 | 25333 ft | 487 kts | 63° |
| 2026-05-05 07:14 | 38.36746 | 140.29292 | 24970 ft | 471 kts | 57° |
| 2026-05-05 07:14 | 38.38399 | 140.32785 | 24603 ft | 449 kts | 50° |
| 2026-05-05 07:14 | 38.40329 | 140.35837 | 24198 ft | 432 kts | 38° |
| 2026-05-05 07:15 | 38.42636 | 140.38173 | 23820 ft | 423 kts | 27° |
| 2026-05-05 07:15 | 38.45107 | 140.40157 | 23380 ft | 421 kts | 25° |
| 2026-05-05 07:15 | 38.47596 | 140.42049 | 22899 ft | 416 kts | 24° |
| 2026-05-05 07:15 | 38.50080 | 140.43909 | 22422 ft | 412 kts | 24° |
| 2026-05-05 07:16 | 38.52544 | 140.45741 | 21945 ft | 410 kts | 24° |
| 2026-05-05 07:16 | 38.54989 | 140.47553 | 21470 ft | 407 kts | 24° |
| 2026-05-05 07:16 | 38.57449 | 140.49371 | 20990 ft | 405 kts | 24° |
| 2026-05-05 07:16 | 38.59860 | 140.51152 | 20503 ft | 403 kts | 24° |
| 2026-05-05 07:17 | 38.62297 | 140.52951 | 19976 ft | 400 kts | 24° |
| 2026-05-05 07:17 | 38.64679 | 140.54709 | 19484 ft | 396 kts | 24° |
| 2026-05-05 07:17 | 38.67025 | 140.56441 | 19009 ft | 391 kts | 24° |
| 2026-05-05 07:17 | 38.69396 | 140.58191 | 18508 ft | 389 kts | 24° |
| 2026-05-05 07:18 | 38.71726 | 140.59909 | 18007 ft | 386 kts | 24° |
| 2026-05-05 07:18 | 38.74033 | 140.61614 | 17506 ft | 382 kts | 24° |
| 2026-05-05 07:18 | 38.76358 | 140.63330 | 16998 ft | 379 kts | 24° |
| 2026-05-05 07:18 | 38.78615 | 140.64998 | 16501 ft | 377 kts | 24° |
| 2026-05-05 07:19 | 38.80916 | 140.66699 | 15991 ft | 375 kts | 24° |
| 2026-05-05 07:19 | 38.83150 | 140.68353 | 15493 ft | 372 kts | 24° |
| 2026-05-05 07:19 | 38.85396 | 140.70016 | 14989 ft | 370 kts | 24° |
| 2026-05-05 07:19 | 38.87640 | 140.71680 | 14481 ft | 367 kts | 24° |
| 2026-05-05 07:20 | 38.89830 | 140.73303 | 13983 ft | 364 kts | 24° |
| 2026-05-05 07:20 | 38.92021 | 140.74930 | 13482 ft | 362 kts | 24° |
| 2026-05-05 07:20 | 38.94176 | 140.76532 | 13003 ft | 355 kts | 25° |
| 2026-05-05 07:20 | 38.96276 | 140.78093 | 12563 ft | 347 kts | 25° |
| 2026-05-05 07:21 | 38.98343 | 140.79633 | 12119 ft | 341 kts | 25° |
| 2026-05-05 07:21 | 39.00393 | 140.81157 | 11668 ft | 336 kts | 25° |
| 2026-05-05 07:21 | 39.02376 | 140.82634 | 11246 ft | 330 kts | 26° |
| 2026-05-05 07:21 | 39.04333 | 140.84093 | 10840 ft | 323 kts | 26° |
| 2026-05-05 07:22 | 39.06240 | 140.85515 | 10503 ft | 308 kts | 26° |
| 2026-05-05 07:22 | 39.08051 | 140.86870 | 10270 ft | 292 kts | 26° |
| 2026-05-05 07:22 | 39.09766 | 140.88152 | 10043 ft | 282 kts | 26° |
| 2026-05-05 07:22 | 39.11461 | 140.89414 | 9790 ft | 281 kts | 26° |
| 2026-05-05 07:23 | 39.13154 | 140.90675 | 9580 ft | 280 kts | 26° |
| 2026-05-05 07:23 | 39.14827 | 140.91923 | 9449 ft | 280 kts | 26° |
| 2026-05-05 07:23 | 39.16535 | 140.93201 | 9310 ft | 281 kts | 26° |
| 2026-05-05 07:23 | 39.18202 | 140.94447 | 9117 ft | 281 kts | 26° |
| 2026-05-05 07:24 | 39.19906 | 140.95725 | 8904 ft | 279 kts | 26° |
| 2026-05-05 07:24 | 39.21569 | 140.96971 | 8732 ft | 279 kts | 26° |
| 2026-05-05 07:24 | 39.23243 | 140.98227 | 8557 ft | 279 kts | 26° |
| 2026-05-05 07:24 | 39.24926 | 140.99489 | 8382 ft | 279 kts | 26° |
| 2026-05-05 07:25 | 39.26588 | 141.00737 | 8207 ft | 279 kts | 25° |
| 2026-05-05 07:25 | 39.28291 | 141.02016 | 8031 ft | 280 kts | 25° |
| 2026-05-05 07:25 | 39.29970 | 141.03278 | 7857 ft | 279 kts | 25° |
| 2026-05-05 07:25 | 39.31657 | 141.04547 | 7678 ft | 279 kts | 25° |
| 2026-05-05 07:26 | 39.33335 | 141.05811 | 7450 ft | 278 kts | 25° |
| 2026-05-05 07:26 | 39.35000 | 141.07065 | 7228 ft | 276 kts | 25° |
| 2026-05-05 07:26 | 39.36668 | 141.08322 | 7052 ft | 273 kts | 25° |
| 2026-05-05 07:26 | 39.38297 | 141.09551 | 6915 ft | 272 kts | 25° |
| 2026-05-05 07:27 | 39.39949 | 141.10794 | 6778 ft | 272 kts | 25° |
| 2026-05-05 07:27 | 39.41536 | 141.11995 | 6674 ft | 256 kts | 25° |
| 2026-05-05 07:27 | 39.43094 | 141.12964 | 6559 ft | 236 kts | 10° |
| 2026-05-05 07:27 | 39.44664 | 141.13298 | 6417 ft | 231 kts | 356° |
| 2026-05-05 07:28 | 39.46289 | 141.13277 | 6230 ft | 232 kts | 351° |
| 2026-05-05 07:28 | 39.47877 | 141.13152 | 6037 ft | 230 kts | 351° |
| 2026-05-05 07:28 | 39.49488 | 141.13026 | 5847 ft | 230 kts | 351° |
| 2026-05-05 07:28 | 39.51070 | 141.12923 | 5655 ft | 224 kts | 351° |
| 2026-05-05 07:29 | 39.52587 | 141.12837 | 5526 ft | 217 kts | 351° |
| 2026-05-05 07:29 | 39.54116 | 141.12749 | 5395 ft | 219 kts | 351° |
| 2026-05-05 07:29 | 39.55648 | 141.12660 | 5241 ft | 219 kts | 351° |
| 2026-05-05 07:29 | 39.57179 | 141.12573 | 5082 ft | 219 kts | 351° |
| 2026-05-05 07:30 | 39.58692 | 141.12488 | 4936 ft | 219 kts | 351° |
| 2026-05-05 07:30 | 39.61626 | 141.12799 | 4409 ft | 213 kts | 25° |
| 2026-05-05 07:30 | 39.62640 | 141.14208 | 4143 ft | 221 kts | 63° |
| 2026-05-05 07:31 | 39.62898 | 141.16180 | 3878 ft | 223 kts | 99° |
| 2026-05-05 07:31 | 39.62293 | 141.17964 | 3691 ft | 217 kts | 137° |
| 2026-05-05 07:31 | 39.61100 | 141.18919 | 3513 ft | 194 kts | 175° |
| 2026-05-05 07:31 | 39.59877 | 141.18745 | 3336 ft | 170 kts | 211° |
| 2026-05-05 07:32 | 39.58846 | 141.18024 | 3112 ft | 167 kts | 213° |
| 2026-05-05 07:32 | 39.57825 | 141.17442 | 2978 ft | 157 kts | 208° |
| 2026-05-05 07:32 | 39.56799 | 141.16946 | 2921 ft | 157 kts | 203° |
| 2026-05-05 07:32 | 39.55765 | 141.16656 | 2649 ft | 148 kts | 197° |
| 2026-05-05 07:33 | 39.54760 | 141.16437 | 2519 ft | 149 kts | 197° |
| 2026-05-05 07:33 | 39.53741 | 141.16199 | 2248 ft | 145 kts | 197° |
| 2026-05-05 07:33 | 39.52752 | 141.15959 | 2107 ft | 147 kts | 197° |
| 2026-05-05 07:33 | 39.51717 | 141.15703 | 1860 ft | 148 kts | 197° |
| 2026-05-05 07:34 | 39.50717 | 141.15460 | 1679 ft | 146 kts | 196° |
| 2026-05-05 07:34 | 39.49730 | 141.15219 | 1478 ft | 142 kts | 196° |
| 2026-05-05 07:34 | 39.48763 | 141.14981 | 1290 ft | 146 kts | 195° |
| 2026-05-05 07:34 | 39.47720 | 141.14720 | 1085 ft | 153 kts | 194° |
| 2026-05-05 07:35 | 39.46696 | 141.14476 | 870 ft | 146 kts | 194° |
| 2026-05-05 07:35 | 39.45738 | 141.14243 | 699 ft | 140 kts | 194° |
| 2026-05-05 07:35 | 39.44758 | 141.13998 | 506 ft | 145 kts | 193° |
| 2026-05-05 07:35 | 39.43761 | 141.13756 | 306 ft | 145 kts | 192° |
| 2026-05-05 07:36 | 39.42921 | 141.13553 | 305 ft | 96 kts | 188° |
| 2026-05-05 07:36 | 39.42379 | 141.13428 | 304 ft | 65 kts | 192° |
| 2026-05-05 07:36 | 39.42208 | 141.13423 | 304 ft | 13 kts | 131° |
| 2026-05-05 07:36 | 39.42185 | 141.13516 | 304 ft | 2 kts | 99° |
| 2026-05-05 07:37 | 39.42184 | 141.13525 | 304 ft | 2 kts | 91° |
| 2026-05-05 07:37 | 39.42188 | 141.13560 | 304 ft | 4 kts | 73° |
| 2026-05-05 07:37 | 39.42195 | 141.13608 | 304 ft | 6 kts | 92° |
| 2026-05-05 07:37 | 39.42190 | 141.13660 | 304 ft | 5 kts | 99° |
| 2026-05-05 07:38 | 39.42184 | 141.13705 | 304 ft | 5 kts | 100° |
| 2026-05-05 07:38 | 39.42177 | 141.13751 | 304 ft | 4 kts | 101° |
| 2026-05-05 07:38 | 39.42176 | 141.13760 | 304 ft | 0 kts | 101° |